createdAt,value
2019-05-09T00:00:17.508Z,7.2
2019-05-09T00:01:17.750Z,7.9
2019-05-09T00:02:17.759Z,6.2
2019-05-09T00:03:17.859Z,8.2
2019-05-09T00:04:17.985Z,5.9
2019-05-09T00:05:18.309Z,7.1
2019-05-09T00:06:18.183Z,5.8
2019-05-09T00:09:18.387Z,6.8
2019-05-09T00:10:18.442Z,7.3
2019-05-09T00:11:18.411Z,5.7
2019-05-09T00:12:18.640Z,6.3
2019-05-09T00:13:18.681Z,6.4
2019-05-09T00:14:18.805Z,6.4
2019-05-09T00:15:18.862Z,6
2019-05-09T00:16:18.878Z,5.5
2019-05-09T00:19:19.081Z,5
2019-05-09T00:20:19.187Z,4.9
2019-05-09T00:21:19.284Z,4.2
2019-05-09T00:22:19.297Z,5.5
2019-05-09T00:23:19.358Z,6.3
2019-05-09T00:24:19.377Z,4.5
2019-05-09T00:25:19.497Z,5.8
2019-05-09T00:26:19.531Z,5
2019-05-09T00:29:19.642Z,3.9
2019-05-09T00:30:19.776Z,4.4
2019-05-09T00:33:19.988Z,5.1
2019-05-09T00:34:20.074Z,3.4
2019-05-09T00:35:20.119Z,3.1
2019-05-09T00:36:20.088Z,4.5
2019-05-09T00:39:20.231Z,5
2019-05-09T00:40:20.425Z,5.4
2019-05-09T00:41:20.400Z,4.5
2019-05-09T00:42:20.511Z,6.4
2019-05-09T00:43:20.618Z,6
2019-05-09T00:44:20.752Z,5.7
2019-05-09T00:45:20.938Z,6.2
2019-05-09T00:46:20.892Z,4
2019-05-09T00:50:23.359Z,6.6
2019-05-09T00:51:23.258Z,3.4
2019-05-09T00:52:23.271Z,4.9
2019-05-09T00:53:23.215Z,4.7
2019-05-09T00:54:23.812Z,5.6
2019-05-09T00:55:23.850Z,4.2
2019-05-09T00:56:23.905Z,4.1
2019-05-09T00:58:24.096Z,4.6
2019-05-09T00:59:24.064Z,4.5
2019-05-09T01:00:24.221Z,4
2019-05-09T01:01:23.922Z,3.2
2019-05-09T01:02:23.589Z,4.4
2019-05-09T01:03:23.506Z,2.8
2019-05-09T01:04:24.090Z,4.6
2019-05-09T01:05:23.970Z,3.4
2019-05-09T01:06:23.842Z,5.9
2019-05-09T01:09:24.145Z,2.8
2019-05-09T01:10:24.234Z,4
2019-05-09T01:11:24.182Z,3.9
2019-05-09T01:12:24.348Z,4.8
2019-05-09T01:13:23.292Z,3.6
2019-05-09T01:14:23.668Z,5.2
2019-05-09T01:15:24.025Z,4.7
2019-05-09T01:16:24.213Z,4.2
2019-05-09T01:19:25.048Z,5.4
2019-05-09T01:20:24.319Z,4.7
2019-05-09T01:21:24.389Z,5.2
2019-05-09T01:22:24.491Z,4.2
2019-05-09T01:23:24.614Z,4.3
2019-05-09T01:24:24.751Z,5.7
2019-05-09T01:25:24.872Z,4.6
2019-05-09T01:26:24.992Z,6.2
2019-05-09T01:29:25.227Z,4.6
2019-05-09T01:30:25.346Z,4.1
2019-05-09T01:31:25.497Z,4.7
2019-05-09T01:32:25.669Z,4.3
2019-05-09T01:33:25.632Z,3.4
2019-05-09T01:34:25.789Z,5.5
2019-05-09T01:35:25.784Z,6.2
2019-05-09T01:36:25.752Z,4.2
2019-05-09T01:40:25.921Z,7.2
2019-05-09T01:41:30.696Z,5.4
2019-05-09T01:42:27.181Z,7.2
2019-05-09T01:43:26.219Z,5
2019-05-09T01:44:26.159Z,4.3
2019-05-09T01:45:26.325Z,5.6
2019-05-09T01:46:26.321Z,6.4
2019-05-09T01:49:26.440Z,8.8
2019-05-09T01:50:26.445Z,5.8
2019-05-09T01:51:26.476Z,7
2019-05-09T01:52:26.458Z,6.1
2019-05-09T01:53:26.577Z,5.6
2019-05-09T01:54:26.600Z,5.6
2019-05-09T01:55:26.585Z,4.5
2019-05-09T01:56:26.575Z,6.5
2019-05-09T01:59:26.585Z,5.8
2019-05-09T02:00:26.718Z,5.3
2019-05-09T02:01:26.900Z,5.2
2019-05-09T02:02:26.912Z,5.3
2019-05-09T02:03:26.950Z,7.1
2019-05-09T02:04:27.930Z,5.4
2019-05-09T02:05:26.902Z,5.4
2019-05-09T02:06:27.016Z,5.7
2019-05-09T02:09:27.480Z,8.8
2019-05-09T02:10:27.428Z,7.1
2019-05-09T02:11:39.252Z,6.3
2019-05-09T02:12:28.693Z,6.3
2019-05-09T02:13:27.659Z,8.7
2019-05-09T02:14:27.815Z,5.2
2019-05-09T02:15:27.942Z,4.7
2019-05-09T02:16:28.095Z,5.6
2019-05-09T02:19:28.651Z,6.1
2019-05-09T02:20:28.622Z,7.8
2019-05-09T02:21:28.735Z,7.5
2019-05-09T02:22:28.862Z,5.3
2019-05-09T02:23:29.022Z,7
2019-05-09T02:24:29.030Z,6.4
2019-05-09T02:25:28.994Z,4.4
2019-05-09T02:26:29.136Z,6.7
2019-05-09T02:30:29.679Z,5.1
2019-05-09T02:31:29.798Z,4.9
2019-05-09T02:32:29.921Z,5.8
2019-05-09T02:33:30.075Z,6.2
2019-05-09T02:34:30.238Z,3.9
2019-05-09T02:35:36.070Z,7.7
2019-05-09T02:36:31.238Z,6.1
2019-05-09T02:37:30.361Z,5.8
2019-05-09T02:39:31.671Z,4.3
2019-05-09T02:40:30.656Z,7.5
2019-05-09T02:41:30.816Z,6.4
2019-05-09T02:42:30.918Z,4.5
2019-05-09T02:43:31.050Z,5.1
2019-05-09T02:44:31.164Z,5.3
2019-05-09T02:45:31.285Z,5.6
2019-05-09T02:46:31.416Z,4.8
2019-05-09T02:49:31.810Z,4.6
2019-05-09T02:50:31.953Z,5.8
2019-05-09T02:51:32.071Z,6
2019-05-09T02:52:32.202Z,5.9
2019-05-09T02:53:32.320Z,5.8
2019-05-09T02:54:32.441Z,5.2
2019-05-09T02:55:32.592Z,6.3
2019-05-09T02:56:32.717Z,5.2
2019-05-09T03:00:33.251Z,4.9
2019-05-09T03:01:33.391Z,7.3
2019-05-09T03:02:33.499Z,6.6
2019-05-09T03:03:33.621Z,5.8
2019-05-09T03:04:33.726Z,4.8
2019-05-09T03:05:33.912Z,5.3
2019-05-09T03:06:33.881Z,7.2
2019-05-09T03:10:34.477Z,6
2019-05-09T03:11:34.416Z,5.2
2019-05-09T03:12:35.675Z,5.9
2019-05-09T03:13:35.702Z,5.9
2019-05-09T03:14:34.664Z,5.6
2019-05-09T03:15:34.820Z,5.5
2019-05-09T03:16:34.822Z,5.7
2019-05-09T03:21:34.955Z,6.7
2019-05-09T03:22:35.091Z,7.3
2019-05-09T03:23:38.424Z,7.3
2019-05-09T03:24:39.029Z,8.5
2019-05-09T03:25:36.434Z,5.1
2019-05-09T03:26:38.334Z,6.2
2019-05-09T03:29:35.685Z,6.6
2019-05-09T03:30:39.239Z,5.9
2019-05-09T03:31:39.291Z,5.2
2019-05-09T03:32:38.697Z,5.5
2019-05-09T03:33:40.310Z,5.6
2019-05-09T03:34:37.327Z,5.9
2019-05-09T03:35:37.848Z,5.4
2019-05-09T03:36:38.507Z,5.9
2019-05-09T03:38:37.701Z,7.8
2019-05-09T03:40:37.700Z,5.8
2019-05-09T03:41:39.477Z,6.6
2019-05-09T03:42:43.214Z,7.3
2019-05-09T03:43:37.892Z,5.7
2019-05-09T03:44:38.450Z,5.2
2019-05-09T03:45:38.141Z,6.9
2019-05-09T03:46:38.363Z,4.8
2019-05-09T03:47:38.286Z,5.3
2019-05-09T03:48:37.504Z,4.9
2019-05-09T03:49:37.672Z,4.8
2019-05-09T03:50:38.260Z,5
2019-05-09T03:51:37.948Z,5.2
2019-05-09T03:52:37.781Z,7.3
2019-05-09T03:53:38.058Z,6.2
2019-05-09T03:54:37.930Z,3.8
2019-05-09T03:55:38.393Z,5.5
2019-05-09T03:56:38.189Z,7
2019-05-09T03:57:38.142Z,5.4
2019-05-09T03:58:38.650Z,6.2
2019-05-09T03:59:38.327Z,6
2019-05-09T04:00:38.393Z,5.4
2019-05-09T04:01:38.472Z,5.7
2019-05-09T04:02:38.560Z,6.7
2019-05-09T04:03:38.634Z,3.3
2019-05-09T04:04:38.712Z,4.2
2019-05-09T04:05:38.767Z,7
2019-05-09T04:06:39.277Z,7.7
2019-05-09T04:07:38.955Z,5.5
2019-05-09T04:08:39.039Z,6.3
2019-05-09T04:09:39.706Z,4.8
2019-05-09T04:10:39.233Z,5.2
2019-05-09T04:11:39.300Z,6.2
2019-05-09T04:12:52.062Z,7.4
2019-05-09T04:13:40.543Z,6.5
2019-05-09T04:14:39.611Z,7
2019-05-09T04:18:40.228Z,8.8
2019-05-09T04:19:40.472Z,6.2
2019-05-09T04:20:40.060Z,5.4
2019-05-09T04:21:40.146Z,10
2019-05-09T04:22:40.269Z,8
2019-05-09T04:23:40.323Z,7.4
2019-05-09T04:24:40.384Z,7.7
2019-05-09T04:25:40.450Z,7.9
2019-05-09T04:26:40.524Z,8.3
2019-05-09T04:27:40.633Z,6.5
2019-05-09T04:28:40.721Z,7
2019-05-09T04:29:40.800Z,5.3
2019-05-09T04:30:40.873Z,7.3
2019-05-09T04:31:40.960Z,6.4
2019-05-09T04:32:41.082Z,6.2
2019-05-09T04:33:41.150Z,7.5
2019-05-09T04:34:41.248Z,7.3
2019-05-09T04:35:41.380Z,7.3
2019-05-09T04:36:41.453Z,7.7
2019-05-09T04:41:41.841Z,5.9
2019-05-09T04:42:44.391Z,6.6
2019-05-09T04:43:42.970Z,6
2019-05-09T04:44:42.037Z,7.6
2019-05-09T04:45:42.074Z,7.1
2019-05-09T04:46:42.177Z,5.7
2019-05-09T04:47:43.507Z,6.2
2019-05-09T04:48:43.335Z,4.6
2019-05-09T04:49:45.077Z,7.7
2019-05-09T04:50:43.431Z,6.7
2019-05-09T04:51:42.572Z,6.2
2019-05-09T04:52:42.640Z,8.4
2019-05-09T04:53:42.728Z,7.9
2019-05-09T04:54:42.811Z,7.4
2019-05-09T04:55:42.893Z,7
2019-05-09T04:56:42.951Z,11.3
2019-05-09T04:59:43.194Z,6.1
2019-05-09T05:00:43.315Z,7.3
2019-05-09T05:01:43.404Z,7.9
2019-05-09T05:02:43.516Z,7
2019-05-09T05:16:44.777Z,7.6
2019-05-09T05:17:44.866Z,5.3
2019-05-09T05:18:44.944Z,7.9
2019-05-09T05:19:47.365Z,7.7
2019-05-09T05:20:48.118Z,7.5
2019-05-09T05:21:48.064Z,6.8
2019-05-09T05:22:47.771Z,6.1
2019-05-09T05:23:47.248Z,5.8
2019-05-09T05:24:45.422Z,6.1
2019-05-09T05:25:47.014Z,6.6
2019-05-09T05:26:48.433Z,6.7
2019-05-09T05:27:47.491Z,9.3
2019-05-09T05:28:47.431Z,8
2019-05-09T05:29:47.598Z,6.3
2019-05-09T05:30:47.683Z,8.2
2019-05-09T05:31:47.705Z,5.6
2019-05-09T05:32:48.591Z,5.9
2019-05-09T05:33:49.863Z,4.9
2019-05-09T05:34:47.908Z,6.2
2019-05-09T05:35:47.987Z,4.8
2019-05-09T05:36:47.738Z,5.9
2019-05-09T05:37:47.685Z,5.7
2019-05-09T05:38:48.009Z,6.3
2019-05-09T05:39:47.726Z,6.2
2019-05-09T05:40:49.851Z,5.3
2019-05-09T05:41:48.467Z,5
2019-05-09T05:42:47.710Z,6
2019-05-09T05:43:47.890Z,6.9
2019-05-09T05:44:47.625Z,5.8
2019-05-09T05:45:47.913Z,3.8
2019-05-09T05:46:50.628Z,5.3
2019-05-09T05:47:48.630Z,6.8
2019-05-09T05:48:48.614Z,6.6
2019-05-09T05:51:48.158Z,4.5
2019-05-09T05:52:47.888Z,6.9
2019-05-09T05:53:48.964Z,5.4
2019-05-09T05:54:48.208Z,6.3
2019-05-09T05:55:50.514Z,5.3
2019-05-09T05:56:49.228Z,7.1
2019-05-09T05:57:48.327Z,5.3
2019-05-09T05:58:49.015Z,7.5
2019-05-09T05:59:48.494Z,5.7
2019-05-09T06:00:48.608Z,6.5
2019-05-09T06:01:48.682Z,3.6
2019-05-09T06:02:48.784Z,5.4
2019-05-09T06:03:48.910Z,6.9
2019-05-09T06:04:49.040Z,4.4
2019-05-09T06:05:51.571Z,5.5
2019-05-09T06:06:50.288Z,5
2019-05-09T06:07:49.433Z,4.8
2019-05-09T06:08:49.563Z,6.7
2019-05-09T06:09:49.694Z,8.3
2019-05-09T06:10:49.877Z,4.2
2019-05-09T06:11:49.950Z,4
2019-05-09T06:12:50.013Z,5.6
2019-05-09T06:13:56.318Z,5.7
2019-05-09T06:14:51.155Z,5
2019-05-09T06:15:50.298Z,5.2
2019-05-09T06:16:50.312Z,6.6
2019-05-09T06:17:50.391Z,4.8
2019-05-09T06:18:50.360Z,5.8
2019-05-09T06:19:50.535Z,5.5
2019-05-09T06:20:50.518Z,7.4
2019-05-09T06:21:52.275Z,5.7
2019-05-09T06:22:51.605Z,7.4
2019-05-09T06:23:50.756Z,5.9
2019-05-09T06:24:50.879Z,5.3
2019-05-09T06:25:51.060Z,6.6
2019-05-09T06:26:51.036Z,5.6
2019-05-09T06:27:51.131Z,4.7
2019-05-09T06:28:51.253Z,6
2019-05-09T06:29:51.383Z,4.8
2019-05-09T06:30:51.480Z,4.6
2019-05-09T06:31:51.631Z,5.2
2019-05-09T06:32:51.747Z,7.5
2019-05-09T06:33:53.435Z,6.1
2019-05-09T06:34:52.822Z,8.5
2019-05-09T06:35:51.890Z,6
2019-05-09T06:36:52.022Z,4.7
2019-05-09T06:37:52.172Z,7.4
2019-05-09T06:38:52.492Z,5.9
2019-05-09T06:39:52.392Z,6.2
2019-05-09T06:40:52.443Z,5
2019-05-09T06:41:52.534Z,4.1
2019-05-09T06:42:52.692Z,3.9
2019-05-09T06:43:52.822Z,6.7
2019-05-09T06:44:52.936Z,7.5
2019-05-09T06:45:53.046Z,4.9
2019-05-09T06:46:53.160Z,4.5
2019-05-09T06:47:53.273Z,3.2
2019-05-09T06:48:53.407Z,6.2
2019-05-09T06:49:53.402Z,5.9
2019-05-09T06:50:53.441Z,5
2019-05-09T06:51:53.529Z,3.7
2019-05-09T06:52:53.553Z,5.6
2019-05-09T06:53:53.575Z,5.4
2019-05-09T06:54:53.604Z,5
2019-05-09T06:55:53.642Z,6.6
2019-05-09T06:56:53.750Z,8
2019-05-09T06:57:53.802Z,5.2
2019-05-09T06:58:53.832Z,6.7
2019-05-09T06:59:53.848Z,4.5
2019-05-09T07:00:53.888Z,4.7
2019-05-09T07:01:54.093Z,5.6
2019-05-09T07:02:57.372Z,5.9
2019-05-09T07:03:54.942Z,4.8
2019-05-09T07:04:53.947Z,6.3
2019-05-09T07:05:53.960Z,5.2
2019-05-09T07:06:54.040Z,4.8
2019-05-09T07:07:54.089Z,4.6
2019-05-09T07:08:54.109Z,4.7
2019-05-09T07:09:54.117Z,4.9
2019-05-09T07:10:54.141Z,7
2019-05-09T07:11:54.162Z,5.2
2019-05-09T07:12:54.221Z,5.1
2019-05-09T07:13:55.253Z,6.2
2019-05-09T07:14:55.260Z,5.3
2019-05-09T07:15:54.249Z,6.6
2019-05-09T07:16:54.262Z,5.4
2019-05-09T07:17:54.321Z,6
2019-05-09T07:18:54.349Z,6.8
2019-05-09T07:19:54.371Z,5.7
2019-05-09T07:20:54.412Z,7
2019-05-09T07:21:54.530Z,5.2
2019-05-09T07:22:54.481Z,5.4
2019-05-09T07:23:54.519Z,6.2
2019-05-09T07:24:58.643Z,4.3
2019-05-09T07:25:55.563Z,4.9
2019-05-09T07:26:54.600Z,5.2
2019-05-09T07:27:54.632Z,5.3
2019-05-09T07:28:54.637Z,8.8
2019-05-09T07:29:54.644Z,4.2
2019-05-09T07:30:54.679Z,6.2
2019-05-09T07:31:54.682Z,6
2019-05-09T07:32:54.736Z,6.1
2019-05-09T07:33:54.778Z,4
2019-05-09T07:34:54.779Z,5
2019-05-09T07:35:57.839Z,6.6
2019-05-09T07:36:58.000Z,4.8
2019-05-09T07:37:57.836Z,4.6
2019-05-09T07:38:58.163Z,8
2019-05-09T07:39:57.724Z,4.6
2019-05-09T07:40:58.029Z,3.2
2019-05-09T07:41:57.703Z,7.2
2019-05-09T07:42:58.325Z,7.4
2019-05-09T07:44:55.185Z,5
2019-05-09T07:45:55.233Z,3.1
2019-05-09T07:46:55.245Z,4.1
2019-05-09T07:47:55.271Z,2.8
2019-05-09T07:48:57.487Z,4.4
2019-05-09T07:50:55.342Z,4.9
2019-05-09T07:51:55.366Z,5.8
2019-05-09T07:52:57.864Z,5.2
2019-05-09T08:03:58.047Z,3.9
2019-05-09T08:04:57.877Z,4.9
2019-05-09T08:05:57.951Z,4.8
2019-05-09T08:06:57.649Z,5.6
2019-05-09T08:07:58.537Z,4.2
2019-05-09T08:08:58.071Z,3
2019-05-09T08:09:57.884Z,3.4
2019-05-09T08:10:58.420Z,4.6
2019-05-09T08:11:58.690Z,4.6
2019-05-09T08:12:58.473Z,4.7
2019-05-09T08:13:57.570Z,3.8
2019-05-09T08:15:08.352Z,4.5
2019-05-09T08:15:58.495Z,4.5
2019-05-09T08:16:57.991Z,4.6
2019-05-09T08:17:58.626Z,3.2
2019-05-09T08:18:57.870Z,3.9
2019-05-09T08:19:58.253Z,4.4
2019-05-09T08:20:57.929Z,3.4
2019-05-09T08:21:57.478Z,3.8
2019-05-09T08:25:57.869Z,3.6
2019-05-09T08:26:58.233Z,5.5
2019-05-09T08:27:58.726Z,3.3
2019-05-09T08:28:58.522Z,4
2019-05-09T08:29:58.288Z,4.8
2019-05-09T08:30:58.632Z,2.6
2019-05-09T08:31:58.207Z,4.8
2019-05-09T08:32:59.831Z,4.3
2019-05-09T08:33:59.236Z,3.7
2019-05-09T08:35:58.460Z,5
2019-05-09T08:37:58.212Z,4
2019-05-09T08:38:58.910Z,3
2019-05-09T08:39:57.899Z,3.5
2019-05-09T08:40:58.825Z,5
2019-05-09T08:41:59.345Z,3.6
2019-05-09T08:42:58.725Z,3.6
2019-05-09T08:43:59.091Z,3.9
2019-05-09T08:44:58.051Z,4.9
2019-05-09T08:45:57.896Z,4.2
2019-05-09T08:46:57.895Z,3.6
2019-05-09T08:47:57.970Z,6.3
2019-05-09T08:48:57.942Z,4.6
2019-05-09T08:49:58.766Z,3.8
2019-05-09T08:50:58.380Z,5.3
2019-05-09T08:52:09.820Z,4
2019-05-09T08:52:59.191Z,4.5
2019-05-09T08:53:58.229Z,3.1
2019-05-09T08:54:58.309Z,3.6
2019-05-09T08:55:58.379Z,3.4
2019-05-09T08:56:58.410Z,5.8
2019-05-09T08:57:58.789Z,4.2
2019-05-09T08:59:01.895Z,4.2
2019-05-09T08:59:59.423Z,5.2
2019-05-09T09:01:03.522Z,2.9
2019-05-09T09:02:14.259Z,4.8
2019-05-09T09:02:59.717Z,3.8
2019-05-09T09:03:58.747Z,4.3
2019-05-09T09:04:58.985Z,5.4
2019-05-09T09:05:58.811Z,4.6
2019-05-09T09:06:58.855Z,4.4
2019-05-09T09:07:58.921Z,2.5
2019-05-09T09:08:58.983Z,3.6
2019-05-09T09:09:59.058Z,6
2019-05-09T09:14:59.430Z,4.1
2019-05-09T09:16:14.106Z,3.4
2019-05-09T09:25:00.025Z,5.5
2019-05-09T09:26:00.111Z,3.6
2019-05-09T09:27:00.139Z,3.6
2019-05-09T09:28:00.147Z,4.8
2019-05-09T09:29:00.132Z,3.5
2019-05-09T09:30:15.484Z,3.6
2019-05-09T09:31:01.262Z,5.7
2019-05-09T09:32:00.268Z,4.4
2019-05-09T09:33:00.324Z,5.7
2019-05-09T09:34:00.395Z,5.3
2019-05-09T09:35:00.408Z,3.8
2019-05-09T09:36:00.552Z,4.3
2019-05-09T09:37:02.858Z,5.8
2019-05-09T09:38:01.580Z,4.7
2019-05-09T09:39:02.939Z,5.9
2019-05-09T09:40:01.792Z,4.1
2019-05-09T09:41:00.774Z,3.1
2019-05-09T09:42:00.805Z,4.9
2019-05-09T09:43:00.811Z,5.5
2019-05-09T09:44:00.820Z,4.7
2019-05-09T09:45:00.803Z,4.3
2019-05-09T09:46:10.258Z,6.9
2019-05-09T09:47:02.157Z,6
2019-05-09T09:48:01.166Z,4.5
2019-05-09T09:49:01.185Z,6.5
2019-05-09T09:50:01.196Z,6.4
2019-05-09T09:51:01.187Z,4.6
2019-05-09T09:52:01.351Z,4.4
2019-05-09T09:53:01.213Z,3.5
2019-05-09T09:54:01.229Z,5.7
2019-05-09T09:55:01.223Z,5.7
2019-05-09T09:56:01.235Z,3.2
2019-05-09T09:57:01.299Z,5.1
2019-05-09T09:58:01.278Z,4.8
2019-05-09T09:59:01.331Z,5.3
2019-05-09T10:00:01.377Z,4.7
2019-05-09T10:01:03.480Z,5.1
2019-05-09T10:02:02.488Z,4.3
2019-05-09T10:03:01.536Z,4
2019-05-09T10:04:15.496Z,4.6
2019-05-09T10:05:02.591Z,4.9
2019-05-09T10:06:01.520Z,4.7
2019-05-09T10:07:01.633Z,4.2
2019-05-09T10:08:01.657Z,3.9
2019-05-09T10:09:01.662Z,3.3
2019-05-09T10:10:01.660Z,6
2019-05-09T10:11:01.667Z,4.7
2019-05-09T10:12:01.746Z,4.3
2019-05-09T10:13:03.950Z,4.9
2019-05-09T10:14:02.804Z,4.2
2019-05-09T10:15:01.820Z,6.5
2019-05-09T10:16:01.811Z,6.2
2019-05-09T10:17:01.829Z,4.9
2019-05-09T10:18:01.885Z,4.3
2019-05-09T10:19:01.930Z,4.8
2019-05-09T10:20:02.043Z,5.2
2019-05-09T10:21:02.058Z,5.4
2019-05-09T10:22:02.072Z,5.4
2019-05-09T10:23:10.344Z,3.7
2019-05-09T10:24:03.200Z,4
2019-05-09T10:25:02.204Z,4.3
2019-05-09T10:26:02.215Z,4.2
2019-05-09T10:27:02.231Z,4.6
2019-05-09T10:28:02.309Z,4.7
2019-05-09T10:29:02.333Z,4
2019-05-09T10:30:02.339Z,3.6
2019-05-09T10:31:02.348Z,3.5
2019-05-09T10:32:02.347Z,4.1
2019-05-09T10:33:02.422Z,5.1
2019-05-09T10:34:02.612Z,4.7
2019-05-09T10:35:02.585Z,4.5
2019-05-09T10:39:02.672Z,6
2019-05-09T10:40:02.677Z,2.9
2019-05-09T10:41:02.712Z,4.8
2019-05-09T10:42:02.736Z,6.1
2019-05-09T10:43:02.756Z,3.4
2019-05-09T10:44:02.783Z,3.8
2019-05-09T10:45:02.807Z,4
2019-05-09T10:46:02.827Z,4
2019-05-09T10:47:02.800Z,3.6
2019-05-09T10:48:02.988Z,3.5
2019-05-09T10:49:03.139Z,5.4
2019-05-09T10:50:03.165Z,3.8
2019-05-09T10:51:05.310Z,4
2019-05-09T10:52:04.188Z,4.4
2019-05-09T10:53:03.255Z,3.1
2019-05-09T10:54:03.261Z,3.9
2019-05-09T10:55:03.284Z,3.5
2019-05-09T10:56:03.286Z,4.4
2019-05-09T10:57:03.351Z,4.6
2019-05-09T10:58:03.356Z,2.9
2019-05-09T10:59:03.418Z,4.1
2019-05-09T11:00:03.634Z,4.3
2019-05-09T11:01:03.454Z,3.1
2019-05-09T11:02:03.455Z,3.3
2019-05-09T11:03:03.472Z,4.6
2019-05-09T11:04:03.510Z,2.4
2019-05-09T11:05:03.533Z,4
2019-05-09T11:06:03.555Z,6.3
2019-05-09T11:07:03.615Z,4.3
2019-05-09T11:08:03.626Z,3.3
2019-05-09T11:09:03.681Z,3.3
2019-05-09T11:10:20.632Z,1.9
2019-05-09T11:11:06.083Z,2.9
2019-05-09T11:12:04.820Z,2.2
2019-05-09T11:13:04.017Z,2.6
2019-05-09T11:14:04.079Z,2.2
2019-05-09T11:15:04.079Z,3.8
2019-05-09T11:16:04.203Z,3.4
2019-05-09T11:17:09.907Z,3.4
2019-05-09T11:18:05.133Z,4
2019-05-09T11:19:04.196Z,3.2
2019-05-09T11:20:04.206Z,3
2019-05-09T11:21:04.238Z,2.4
2019-05-09T11:22:04.287Z,2.5
2019-05-09T11:23:04.345Z,2.7
2019-05-09T11:24:04.384Z,3.4
2019-05-09T11:25:04.547Z,4.4
2019-05-09T11:26:04.388Z,2.6
2019-05-09T11:27:04.421Z,3.5
2019-05-09T11:28:10.341Z,4
2019-05-09T11:34:04.600Z,2.8
2019-05-09T11:35:04.700Z,3
2019-05-09T11:36:04.841Z,2.5
2019-05-09T11:37:04.873Z,3.9
2019-05-09T11:38:08.277Z,4.3
2019-05-09T11:39:10.195Z,2.8
2019-05-09T11:40:06.090Z,4
2019-05-09T11:41:05.104Z,3.7
2019-05-09T11:45:07.622Z,2.7
2019-05-09T11:46:10.188Z,3.7
2019-05-09T11:47:06.378Z,3.3
2019-05-09T11:48:07.930Z,2.9
2019-05-09T11:50:08.481Z,3.1
2019-05-09T11:52:05.485Z,2.4
2019-05-09T11:53:05.511Z,3.3
2019-05-09T11:54:05.508Z,2.8
2019-05-09T11:55:07.620Z,2.6
2019-05-09T11:56:08.174Z,3
2019-05-09T11:57:07.600Z,3.6
2019-05-09T11:58:08.314Z,2.1
2019-05-09T11:59:07.813Z,3.1
2019-05-09T12:00:08.217Z,3.1
2019-05-09T12:01:08.196Z,3.5
2019-05-09T12:02:08.812Z,4.3
2019-05-09T12:03:09.061Z,2.3
2019-05-09T12:04:07.990Z,2.5
2019-05-09T12:05:08.699Z,3.3
2019-05-09T12:06:07.926Z,2.2
2019-05-09T12:07:07.878Z,3
2019-05-09T12:08:08.383Z,2.6
2019-05-09T12:09:08.549Z,2.8
2019-05-09T12:10:07.753Z,4.7
2019-05-09T12:11:08.162Z,2.5
2019-05-09T12:12:07.022Z,3.1
2019-05-09T12:13:08.052Z,2.6
2019-05-09T12:14:08.835Z,1.6
2019-05-09T12:15:08.727Z,4
2019-05-09T12:16:07.209Z,3.5
2019-05-09T12:17:08.316Z,3.9
2019-05-09T12:18:10.770Z,2.4
2019-05-09T12:19:07.393Z,3.6
2019-05-09T12:20:10.310Z,3.3
2019-05-09T12:21:08.493Z,1.8
2019-05-09T12:22:08.892Z,1.8
2019-05-09T12:23:07.941Z,2.3
2019-05-09T12:24:08.826Z,2
2019-05-09T12:28:07.787Z,2
2019-05-09T12:29:08.645Z,1.9
2019-05-09T12:30:07.720Z,2
2019-05-09T12:31:07.841Z,1.7
2019-05-09T12:32:08.713Z,1.7
2019-05-09T12:33:08.514Z,2.7
2019-05-09T12:34:09.020Z,2.5
2019-05-09T12:35:08.846Z,2.1
2019-05-09T12:36:09.169Z,3.2
2019-05-09T12:37:09.462Z,1.8
2019-05-09T12:38:08.413Z,1.9
2019-05-09T12:39:08.672Z,2.4
2019-05-09T12:40:08.391Z,1.6
2019-05-09T12:41:07.800Z,4.3
2019-05-09T12:42:08.787Z,1.9
2019-05-09T12:43:09.064Z,2.6
2019-05-09T12:44:08.770Z,2.5
2019-05-09T12:45:08.315Z,1.5
2019-05-09T12:46:08.662Z,2.1
2019-05-09T12:47:07.210Z,2
2019-05-09T12:48:14.068Z,2.3
2019-05-09T12:49:09.008Z,1.1
2019-05-09T12:50:08.580Z,2.9
2019-05-09T12:51:08.387Z,1.3
2019-05-09T12:52:08.153Z,3.7
2019-05-09T12:53:07.514Z,1.8
2019-05-09T12:54:08.384Z,2.5
2019-05-09T12:55:08.532Z,2.8
2019-05-09T12:56:08.190Z,1.4
2019-05-09T12:57:08.125Z,2
2019-05-09T12:58:09.729Z,2
2019-05-09T12:59:09.033Z,1.8
2019-05-09T13:00:08.032Z,1.9
2019-05-09T13:01:08.042Z,2.2
2019-05-09T13:02:08.251Z,2.2
2019-05-09T13:03:08.764Z,2.6
2019-05-09T13:04:09.664Z,1.7
2019-05-09T13:05:09.143Z,2.1
2019-05-09T13:06:08.422Z,1.2
2019-05-09T13:07:08.680Z,1.7
2019-05-09T13:08:10.361Z,1.3
2019-05-09T13:09:09.431Z,1.4
2019-05-09T13:10:09.044Z,2.1
2019-05-09T13:11:08.633Z,1.2
2019-05-09T13:12:08.761Z,0.9
2019-05-09T13:13:09.028Z,1.8
2019-05-09T13:14:09.904Z,2.2
2019-05-09T13:15:09.820Z,1.3
2019-05-09T13:16:10.842Z,2.2
2019-05-09T13:17:09.827Z,1.4
2019-05-09T13:18:21.273Z,1.6
2019-05-09T13:19:09.845Z,0.8
2019-05-09T13:20:09.015Z,2.2
2019-05-09T13:21:09.128Z,0.9
2019-05-09T13:22:09.138Z,1.9
2019-05-09T13:23:09.393Z,1.6
2019-05-09T13:24:09.360Z,1
2019-05-09T13:25:09.748Z,1.2
2019-05-09T13:26:09.401Z,2
2019-05-09T13:27:09.422Z,3
2019-05-09T13:28:09.591Z,1.3
2019-05-09T13:29:09.472Z,1
2019-05-09T13:30:09.520Z,0.6
2019-05-09T13:31:09.533Z,1.5
2019-05-09T13:32:09.544Z,2.9
2019-05-09T13:33:10.820Z,1.7
2019-05-09T13:34:10.663Z,0.7
2019-05-09T13:35:09.846Z,0.7
2019-05-09T13:36:10.000Z,0.6
2019-05-09T13:37:09.855Z,1.6
2019-05-09T13:38:09.909Z,2.6
2019-05-09T13:39:10.504Z,1
2019-05-09T13:40:09.979Z,1.3
2019-05-09T13:41:09.990Z,2
2019-05-09T13:42:09.993Z,1.9
2019-05-09T13:43:10.047Z,1.7
2019-05-09T13:44:13.438Z,1.1
2019-05-09T13:45:11.046Z,0.6
2019-05-09T13:46:10.035Z,0.9
2019-05-09T13:47:10.883Z,0.5
2019-05-09T13:48:26.315Z,1.1
2019-05-09T13:49:14.996Z,1.9
2019-05-09T13:50:11.074Z,1.6
2019-05-09T13:51:10.090Z,1.8
2019-05-09T13:52:10.336Z,1.6
2019-05-09T13:53:10.331Z,1
2019-05-09T13:54:10.403Z,0.7
2019-05-09T13:55:10.435Z,2.7
2019-05-09T13:56:10.458Z,1.1
2019-05-09T13:57:10.435Z,0.9
2019-05-09T13:58:10.628Z,0.6
2019-05-09T13:59:10.678Z,1.3
2019-05-09T14:00:10.739Z,1.2
2019-05-09T14:01:10.719Z,1.6
2019-05-09T14:02:10.742Z,0.5
2019-05-09T14:03:10.752Z,0.7
2019-05-09T14:04:10.861Z,0.4
2019-05-09T14:05:10.902Z,1.2
2019-05-09T14:06:10.927Z,0.8
2019-05-09T14:07:10.957Z,0.5
2019-05-09T14:08:11.664Z,0.6
2019-05-09T14:09:11.061Z,0.5
2019-05-09T14:10:11.072Z,0.4
2019-05-09T14:11:11.100Z,0.3
2019-05-09T14:12:11.127Z,1.8
2019-05-09T14:13:13.869Z,0.6
2019-05-09T14:14:12.331Z,1
2019-05-09T14:15:11.216Z,0.7
2019-05-09T14:16:19.175Z,1.6
2019-05-09T14:17:13.819Z,0.4
2019-05-09T14:18:12.241Z,0.8
2019-05-09T14:19:29.120Z,1.3
2019-05-09T14:20:12.425Z,1.7
2019-05-09T14:21:11.445Z,1.6
2019-05-09T14:22:11.460Z,1.2
2019-05-09T14:23:11.784Z,2.1
2019-05-09T14:24:15.523Z,1.3
2019-05-09T14:25:12.672Z,1
2019-05-09T14:26:11.688Z,1.4
2019-05-09T14:27:11.711Z,0.9
2019-05-09T14:28:11.771Z,0.6
2019-05-09T14:29:12.999Z,1.8
2019-05-09T14:30:12.816Z,1.4
2019-05-09T14:31:11.899Z,1.2
2019-05-09T14:32:12.118Z,2.1
2019-05-09T14:33:12.264Z,0.9
2019-05-09T14:34:12.227Z,1.9
2019-05-09T14:35:12.263Z,2.2
2019-05-09T14:36:12.198Z,1.4
2019-05-09T14:37:12.245Z,2.1
2019-05-09T14:38:12.329Z,1.2
2019-05-09T14:39:12.478Z,2.3
2019-05-09T14:40:12.608Z,1.3
2019-05-09T14:41:12.721Z,1
2019-05-09T14:42:12.828Z,0.8
2019-05-09T14:43:12.922Z,1.1
2019-05-09T14:44:12.994Z,1.4
2019-05-09T14:45:13.160Z,4
2019-05-09T14:46:13.114Z,2.2
2019-05-09T14:47:13.231Z,2.1
2019-05-09T14:48:13.330Z,2.3
2019-05-09T14:49:13.417Z,2.6
2019-05-09T14:50:13.539Z,1.8
2019-05-09T14:51:13.635Z,4.4
2019-05-09T14:52:13.745Z,3.5
2019-05-09T14:53:13.839Z,1.8
2019-05-09T14:54:13.943Z,1.6
2019-05-09T14:55:14.089Z,1.3
2019-05-09T14:56:14.244Z,1.8
2019-05-09T14:57:14.317Z,1.4
2019-05-09T14:58:14.417Z,2.1
2019-05-09T14:59:14.491Z,1.5
2019-05-09T15:00:14.596Z,2.1
2019-05-09T15:01:14.731Z,2.6
2019-05-09T15:02:14.854Z,1.7
2019-05-09T15:03:14.998Z,4.6
2019-05-09T15:04:15.102Z,1.8
2019-05-09T15:05:18.514Z,2.5
2019-05-09T15:06:18.177Z,2.6
2019-05-09T15:07:18.609Z,1.4
2019-05-09T15:08:18.041Z,1.4
2019-05-09T15:09:18.165Z,1.7
2019-05-09T15:10:18.712Z,2.1
2019-05-09T15:11:18.090Z,1.6
2019-05-09T15:12:18.577Z,2.3
2019-05-09T15:13:18.352Z,2.7
2019-05-09T15:14:18.071Z,1.6
2019-05-09T15:15:18.417Z,2.2
2019-05-09T15:16:18.383Z,2.9
2019-05-09T15:17:18.451Z,3
2019-05-09T15:18:17.587Z,1.6
2019-05-09T15:19:18.032Z,1.5
2019-05-09T15:20:17.965Z,2
2019-05-09T15:21:19.093Z,2.1
2019-05-09T15:22:17.135Z,1.4
2019-05-09T15:23:16.993Z,1.6
2019-05-09T15:24:18.824Z,1.8
2019-05-09T15:25:18.954Z,2.3
2019-05-09T15:26:17.723Z,1
2019-05-09T15:27:17.668Z,2.8
2019-05-09T15:28:17.639Z,1.5
2019-05-09T15:29:16.265Z,0.6
2019-05-09T15:30:18.454Z,2.2
2019-05-09T15:31:18.260Z,1
2019-05-09T15:32:18.212Z,1.8
2019-05-09T15:33:17.559Z,1.6
2019-05-09T15:34:18.512Z,0.8
2019-05-09T15:35:18.233Z,3
2019-05-09T15:36:18.871Z,1.4
2019-05-09T15:37:18.580Z,1.3
2019-05-09T15:38:18.232Z,1.5
2019-05-09T15:39:18.315Z,1.1
2019-05-09T15:40:17.922Z,1.1
2019-05-09T15:41:18.313Z,1.6
2019-05-09T15:42:18.323Z,0.7
2019-05-09T15:43:18.505Z,1.9
2019-05-09T15:44:18.611Z,0.9
2019-05-09T15:45:18.197Z,1.6
2019-05-09T15:46:18.594Z,1.6
2019-05-09T15:47:18.170Z,0.7
2019-05-09T15:48:18.203Z,2.2
2019-05-09T15:49:18.307Z,0.9
2019-05-09T15:50:22.683Z,2.1
2019-05-09T15:51:18.321Z,2.4
2019-05-09T15:52:18.077Z,1.5
2019-05-09T15:53:18.590Z,2.4